Map

Track Data

SID SEASON NUMBER BASIN SUBBASIN NAME ISO_TIME NATURE LAT LON WMO_WIND WMO_PRES WMO_AGENCY TRACK_TYPE DIST2LAND LANDFALL IFLAG USA_AGENCY USA_ATCF_ID USA_LAT USA_LON USA_RECORD USA_STATUS USA_WIND USA_PRES USA_SSHS USA_R34_NE USA_R34_SE USA_R34_SW USA_R34_NW USA_R50_NE USA_R50_SE USA_R50_SW USA_R50_NW USA_R64_NE USA_R64_SE USA_R64_SW USA_R64_NW USA_POCI USA_ROCI USA_RMW USA_EYE TOKYO_LAT TOKYO_LON TOKYO_GRADE TOKYO_WIND TOKYO_PRES TOKYO_R50_DIR TOKYO_R50_LONG TOKYO_R50_SHORT TOKYO_R30_DIR TOKYO_R30_LONG TOKYO_R30_SHORT TOKYO_LAND CMA_LAT CMA_LON CMA_CAT CMA_WIND CMA_PRES HKO_LAT HKO_LON HKO_CAT HKO_WIND HKO_PRES NEWDELHI_LAT NEWDELHI_LON NEWDELHI_GRADE NEWDELHI_WIND NEWDELHI_PRES NEWDELHI_CI NEWDELHI_DP NEWDELHI_POCI REUNION_LAT REUNION_LON REUNION_TYPE REUNION_WIND REUNION_PRES REUNION_TNUM REUNION_CI REUNION_RMW REUNION_R34_NE REUNION_R34_SE REUNION_R34_SW REUNION_R34_NW REUNION_R50_NE REUNION_R50_SE REUNION_R50_SW REUNION_R50_NW REUNION_R64_NE REUNION_R64_SE REUNION_R64_SW REUNION_R64_NW BOM_LAT BOM_LON BOM_TYPE BOM_WIND BOM_PRES BOM_TNUM BOM_CI BOM_RMW BOM_R34_NE BOM_R34_SE BOM_R34_SW BOM_R34_NW BOM_R50_NE BOM_R50_SE BOM_R50_SW BOM_R50_NW BOM_R64_NE BOM_R64_SE BOM_R64_SW BOM_R64_NW BOM_ROCI BOM_POCI BOM_EYE BOM_POS_METHOD BOM_PRES_METHOD NADI_LAT NADI_LON NADI_CAT NADI_WIND NADI_PRES WELLINGTON_LAT WELLINGTON_LON WELLINGTON_WIND WELLINGTON_PRES DS824_LAT DS824_LON DS824_STAGE DS824_WIND DS824_PRES TD9636_LAT TD9636_LON TD9636_STAGE TD9636_WIND TD9636_PRES TD9635_LAT TD9635_LON TD9635_WIND TD9635_PRES TD9635_ROCI NEUMANN_LAT NEUMANN_LON NEUMANN_CLASS NEUMANN_WIND NEUMANN_PRES MLC_LAT MLC_LON MLC_CLASS MLC_WIND MLC_PRES USA_GUST BOM_GUST BOM_GUST_PER REUNION_GUST REUNION_GUST_PER USA_SEAHGT USA_SEARAD_NE USA_SEARAD_SE USA_SEARAD_SW USA_SEARAD_NW STORM_SPEED STORM_DIR
1939266N19266 1939 64 NA GM NOT_NAMED 1939-09-23 00:00:00 TS 19.3000 -94.2000 35 hurdat_atl main 114 114 O_____________ hurdat_atl AL041939 19.3000 -94.2000 TS 35 0 2 30
1939266N19266 1939 64 NA GM NOT_NAMED 1939-09-23 03:00:00 TS 19.4025 -94.1450 main 124 124 P_____________ AL041939 19.4025 -94.1450 TS 35 0 2 27
1939266N19266 1939 64 NA GM NOT_NAMED 1939-09-23 06:00:00 TS 19.5000 -94.1000 35 hurdat_atl main 135 135 O_____________ hurdat_atl AL041939 19.5000 -94.1000 TS 35 0 2 22
1939266N19266 1939 64 NA GM NOT_NAMED 1939-09-23 09:00:00 TS 19.5925 -94.0650 main 146 145 P_____________ AL041939 19.5925 -94.0650 TS 35 0 2 27
1939266N19266 1939 64 NA GM NOT_NAMED 1939-09-23 12:00:00 TS 19.7000 -94.0000 35 hurdat_atl main 156 156 O_____________ hurdat_atl AL041939 19.7000 -94.0000 TS 35 0 3 36
1939266N19266 1939 64 NA GM NOT_NAMED 1939-09-23 15:00:00 TS 19.8425 -93.8725 main 167 167 P_____________ AL041939 19.8425 -93.8725 TS 35 0 4 43
1939266N19266 1939 64 NA GM NOT_NAMED 1939-09-23 18:00:00 TS 20.0000 -93.7000 35 hurdat_atl main 188 182 O_____________ hurdat_atl AL041939 20.0000 -93.7000 TS 35 0 5 48
1939266N19266 1939 64 NA GM NOT_NAMED 1939-09-23 21:00:00 TS 20.1425 -93.5149 main 187 187 P_____________ AL041939 20.1425 -93.5149 TS 35 0 5 51
1939266N19266 1939 64 NA GM NOT_NAMED 1939-09-24 00:00:00 TS 20.3000 -93.3000 35 hurdat_atl main 200 197 O_____________ hurdat_atl AL041939 20.3000 -93.3000 TS 35 0 6 51
1939266N19266 1939 64 NA GM NOT_NAMED 1939-09-24 03:00:00 TS 20.4850 -93.0575 main 216 214 P_____________ AL041939 20.4850 -93.0575 TS 35 0 6 49
1939266N19266 1939 64 NA GM NOT_NAMED 1939-09-24 06:00:00 TS 20.7000 -92.8000 35 hurdat_atl main 235 212 O_____________ hurdat_atl AL041939 20.7000 -92.8000 TS 35 0 7 49
1939266N19266 1939 64 NA GM NOT_NAMED 1939-09-24 09:00:00 TS 20.9125 -92.5349 main 212 198 P_____________ AL041939 20.9125 -92.5349 TS 35 0 7 43
1939266N19266 1939 64 NA GM NOT_NAMED 1939-09-24 12:00:00 TS 21.2000 -92.3000 35 hurdat_atl main 202 194 O_____________ hurdat_atl AL041939 21.2000 -92.3000 TS 35 0 8 29
1939266N19266 1939 64 NA GM NOT_NAMED 1939-09-24 15:00:00 TS 21.6050 -92.1274 main 194 194 P_____________ AL041939 21.6050 -92.1274 TS 35 0 9 17
1939266N19266 1939 64 NA GM NOT_NAMED 1939-09-24 18:00:00 TS 22.1000 -92.0000 35 hurdat_atl main 208 208 O_____________ hurdat_atl AL041939 22.1000 -92.0000 TS 35 0 11 12
1939266N19266 1939 64 NA GM NOT_NAMED 1939-09-24 21:00:00 TS 22.6275 -91.8850 main 235 235 P_____________ AL041939 22.6275 -91.8850 TS 35 0 11 10
1939266N19266 1939 64 NA GM NOT_NAMED 1939-09-25 00:00:00 TS 23.2000 -91.8000 35 hurdat_atl main 281 281 O_____________ hurdat_atl AL041939 23.2000 -91.8000 TS 35 0 12 6
1939266N19266 1939 64 NA GM NOT_NAMED 1939-09-25 03:00:00 TS 23.8000 -91.7498 main 334 334 P_____________ AL041939 23.8000 -91.7498 TS 37 0 12 4
1939266N19266 1939 64 NA GM NOT_NAMED 1939-09-25 06:00:00 TS 24.4000 -91.7000 40 hurdat_atl main 395 395 O_____________ hurdat_atl AL041939 24.4000 -91.7000 TS 40 0 12 6
1939266N19266 1939 64 NA GM NOT_NAMED 1939-09-25 09:00:00 TS 24.9575 -91.6149 main 455 406 P_____________ AL041939 24.9575 -91.6149 TS 40 0 11 9
1939266N19266 1939 64 NA GM NOT_NAMED 1939-09-25 12:00:00 TS 25.5000 -91.5000 40 hurdat_atl main 406 349 O_____________ hurdat_atl AL041939 25.5000 -91.5000 TS 40 0 11 12
1939266N19266 1939 64 NA GM NOT_NAMED 1939-09-25 15:00:00 TS 26.0500 -91.3649 main 349 280 P_____________ AL041939 26.0500 -91.3649 TS 40 0 11 14
1939266N19266 1939 64 NA GM NOT_NAMED 1939-09-25 18:00:00 TS 26.6000 -91.2000 40 hurdat_atl main 280 223 O_____________ hurdat_atl AL041939 26.6000 -91.2000 TS 40 0 11 16
1939266N19266 1939 64 NA GM NOT_NAMED 1939-09-25 21:00:00 TS 27.1500 -91.0148 main 223 156 P_____________ AL041939 27.1500 -91.0148 TS 42 0 12 18
1939266N19266 1939 64 NA GM NOT_NAMED 1939-09-26 00:00:00 TS 27.7000 -90.8000 45 hurdat_atl main 156 100 O_____________ hurdat_atl AL041939 27.7000 -90.8000 TS 45 0 12 21
1939266N19266 1939 64 NA GM NOT_NAMED 1939-09-26 03:00:00 TS 28.2733 -90.5334 main 89 34 P_____________ AL041939 28.2733 -90.5334 TS 45 0 12 22
1939266N19266 1939 64 NA GM NOT_NAMED 1939-09-26 06:00:00 TS 28.8000 -90.3000 45 hurdat_atl main 34 0 O_____________ hurdat_atl AL041939 28.8000 -90.3000 TS 45 0 11 20
1939266N19266 1939 64 NA GM NOT_NAMED 1939-09-26 08:00:00 TS 29.1000 -90.2000 45 hurdat_atl main 0 0 O_____________ hurdat_atl AL041939 29.1000 -90.2000 L TS 45 0 10 20
1939266N19266 1939 64 NA NA NOT_NAMED 1939-09-26 09:00:00 TS 29.2659 -90.1043 main 0 0 P_____________ AL041939 29.2659 -90.1043 TS 45 0 12 32
1939266N19266 1939 64 NA NA NOT_NAMED 1939-09-26 12:00:00 TS 29.8000 -89.7000 45 hurdat_atl main 0 0 O_____________ hurdat_atl AL041939 29.8000 -89.7000 TS 45 0 12 32
1939266N19266 1939 64 NA GM NOT_NAMED 1939-09-26 15:00:00 TS 30.3043 -89.3660 main 0 0 P_____________ AL041939 30.3043 -89.3660 TS 42 0 12 31
1939266N19266 1939 64 NA NA NOT_NAMED 1939-09-26 18:00:00 TS 30.8000 -89.0000 40 hurdat_atl main 0 0 O_____________ hurdat_atl AL041939 30.8000 -89.0000 TS 40 0 12 35
1939266N19266 1939 64 NA NA NOT_NAMED 1939-09-26 21:00:00 TS 31.2998 -88.5444 main 0 0 P_____________ AL041939 31.2998 -88.5444 TS 35 0 13 41
1939266N19266 1939 64 NA NA NOT_NAMED 1939-09-27 00:00:00 TS 31.8000 -88.0000 30 hurdat_atl main 0 0 O_____________ hurdat_atl AL041939 31.8000 -88.0000 TD 30 -1 14 45
1939266N19266 1939 64 NA NA NOT_NAMED 1939-09-27 03:00:00 TS 32.3008 -87.3741 main 0 0 P_____________ AL041939 32.3008 -87.3741 TD 27 -1 15 48
1939266N19266 1939 64 NA NA NOT_NAMED 1939-09-27 06:00:00 TS 32.8000 -86.7000 25 hurdat_atl main 0 O_____________ hurdat_atl AL041939 32.8000 -86.7000 TD 25 -1 15 49

About IBTrACS Database

This database is a web-friendly format of International Best Track Archive for Climate Stewardship (IBTrACS), a global best track data archive curated by NOAA dating back to 1842.

Updated: 2021-12-06